| Date | Time | Temp. (oF) | Dew Point (oF) | Rel. Hum. (%) | Press. (in.) | Wind Dir. (deg.) | Wind Speed (mph) | Hourly Rainfall (i n.) |
|
|---|---|---|---|---|---|---|---|---|---|
| 1 | 06/23 | 24:00 | 65 | 57 | 77 | 30.33 | 150 | 0 | 0.00 |
| 2 | 06/22 | 23:00 | 67 | 58 | 73 | 30.32 | 150 | 0 | 0.00 |
| 3 | 06/22 | 22:00 | 69 | 56 | 65 | 30.31 | 150 | 0 | 0.00 |
| 4 | 06/22 | 21:00 | 72 | 56 | 58 | 30.29 | 150 | 0 | 0.00 |
| 5 | 06/22 | 20:00 | 75 | 55 | 51 | 30.25 | 150 | 0 | 0.00 |
| 6 | 06/22 | 19:00 | 77 | 53 | 45 | 30.25 | 150 | 0 | 0.00 |
| 7 | 06/22 | 18:00 | 79 | 55 | 44 | 30.27 | 150 | 0 | 0.00 |
| 8 | 06/22 | 17:00 | 80 | 55 | 44 | 30.30 | 150 | 2 | 0.00 |
| 9 | 06/22 | 16:00 | 81 | 57 | 45 | 30.29 | 270 | 4 | 0.00 |
| 10 | 06/22 | 15:00 | 83 | 57 | 43 | 30.29 | 170 | 4 | 0.00 |
| 11 | 06/22 | 14:00 | 84 | 58 | 43 | 30.30 | 60 | 0 | 0.00 |
| 12 | 06/22 | 13:00 | 83 | 60 | 47 | 30.30 | 70 | 4 | 0.00 |
| 13 | 06/22 | 12:00 | 80 | 62 | 56 | 30.30 | 150 | 1 | 0.00 |
| 14 | 06/22 | 11:00 | 75 | 64 | 70 | 30.31 | 50 | 1 | 0.00 |
| 15 | 06/22 | 10:00 | 65 | 62 | 91 | 30.32 | 10 | 0 | 0.00 |
| 16 | 06/22 | 09:00 | 60 | 57 | 92 | 30.34 | 10 | 1 | 0.00 |
| 17 | 06/22 | 08:00 | 58 | 55 | 92 | 30.34 | 10 | 1 | 0.00 |
| 18 | 06/22 | 07:00 | 57 | 54 | 92 | 30.39 | 50 | 0 | 0.00 |
| 19 | 06/22 | 06:00 | 56 | 53 | 91 | 30.38 | 50 | 0 | 0.00 |
| 20 | 06/22 | 05:00 | 56 | 53 | 91 | 30.37 | 50 | 0 | 0.00 |
| 21 | 06/22 | 04:00 | 56 | 53 | 90 | 30.36 | 50 | 0 | 0.00 |
| 22 | 06/22 | 03:00 | 57 | 53 | 89 | 30.37 | 50 | 0 | 0.00 |
| 23 | 06/22 | 02:00 | 57 | 53 | 89 | 30.37 | 50 | 0 | 0.00 |
| 24 | 06/22 | 01:00 | 58 | 54 | 87 | 30.39 | 50 | 0 | 0.00 |